createdAt,value
2018-11-06T00:00:31.281Z,86.90
2018-11-06T00:01:31.320Z,87.28
2018-11-06T00:02:31.361Z,86.80
2018-11-06T00:03:31.397Z,87.09
2018-11-06T00:04:31.432Z,86.52
2018-11-06T00:05:31.471Z,86.05
2018-11-06T00:06:31.510Z,86.52
2018-11-06T00:07:31.553Z,85.95
2018-11-06T00:08:31.589Z,85.66
2018-11-06T00:09:31.633Z,85.95
2018-11-06T00:10:31.676Z,86.05
2018-11-06T00:11:31.705Z,85.24
2018-11-06T00:12:31.738Z,85.10
2018-11-06T00:13:31.907Z,84.72
2018-11-06T00:14:31.823Z,84.81
2018-11-06T00:15:31.856Z,84.52
2018-11-06T00:16:31.899Z,84.43
2018-11-06T00:17:31.977Z,84.33
2018-11-06T00:18:31.975Z,84.05
2018-11-06T00:19:32.058Z,84.52
2018-11-06T00:20:32.336Z,84.33
2018-11-06T00:21:32.081Z,84.05
2018-11-06T00:22:32.194Z,84.05
2018-11-06T00:23:32.418Z,84.62
2018-11-06T00:24:32.196Z,84.33
2018-11-06T00:25:32.238Z,84.33
2018-11-06T00:26:32.329Z,84.01
2018-11-06T00:27:32.387Z,84.24
2018-11-06T00:28:32.369Z,84.05
2018-11-06T00:29:32.385Z,83.95
2018-11-06T00:30:32.456Z,83.48
2018-11-06T00:31:32.463Z,83.19
2018-11-06T00:32:32.511Z,83.34
2018-11-06T00:33:32.540Z,83.53
2018-11-06T00:34:32.575Z,83.34
2018-11-06T00:35:32.668Z,83.58
2018-11-06T00:36:32.651Z,83.82
2018-11-06T00:37:32.694Z,83.72
2018-11-06T00:38:32.727Z,83.48
2018-11-06T00:39:32.764Z,83.48
2018-11-06T00:40:32.804Z,83.19
2018-11-06T00:41:32.843Z,83.34
2018-11-06T00:42:32.880Z,83.76
2018-11-06T00:43:32.918Z,83.25
2018-11-06T00:44:32.956Z,83.82
2018-11-06T00:45:33.014Z,84.29
2018-11-06T00:46:33.043Z,84.29
2018-11-06T00:47:33.073Z,84.29
2018-11-06T00:48:33.106Z,84.10
2018-11-06T00:49:33.144Z,84.20
2018-11-06T00:50:33.183Z,84.01
2018-11-06T00:51:33.236Z,84.20
2018-11-06T00:52:33.360Z,83.95
2018-11-06T00:53:33.301Z,83.86
2018-11-06T00:54:33.341Z,83.48
2018-11-06T00:55:33.392Z,83.29
2018-11-06T00:56:33.412Z,84.05
2018-11-06T00:57:33.456Z,83.67
2018-11-06T00:58:33.487Z,84.29
2018-11-06T00:59:33.525Z,84.05
2018-11-06T01:00:33.562Z,84.43
2018-11-06T01:01:33.599Z,84.67
2018-11-06T01:02:33.637Z,85.15
2018-11-06T01:03:33.674Z,84.77
2018-11-06T01:04:33.716Z,85.24
2018-11-06T01:05:33.751Z,85.05
2018-11-06T01:06:33.792Z,85.34
2018-11-06T01:07:33.829Z,85.05
2018-11-06T01:08:33.868Z,84.86
2018-11-06T01:09:33.904Z,85.05
2018-11-06T01:10:33.943Z,84.10
2018-11-06T01:11:33.989Z,84.58
2018-11-06T01:12:34.939Z,84.29
2018-11-06T01:13:34.054Z,84.20
2018-11-06T01:14:34.094Z,84.39
2018-11-06T01:15:34.131Z,84.29
2018-11-06T01:16:34.168Z,84.29
2018-11-06T01:17:34.206Z,84.10
2018-11-06T01:18:34.356Z,84.10
2018-11-06T01:19:34.283Z,84.48
2018-11-06T01:20:34.325Z,84.29
2018-11-06T01:21:34.364Z,84.20
2018-11-06T01:22:34.397Z,84.29
2018-11-06T01:23:34.514Z,84.29
2018-11-06T01:24:34.474Z,83.91
2018-11-06T01:25:34.513Z,84.10
2018-11-06T01:26:34.562Z,84.01
2018-11-06T01:27:34.591Z,83.34
2018-11-06T01:28:34.763Z,83.44
2018-11-06T01:29:34.663Z,83.34
2018-11-06T01:30:34.706Z,83.34
2018-11-06T01:31:34.739Z,83.91
2018-11-06T01:32:34.778Z,83.91
2018-11-06T01:33:34.819Z,84.58
2018-11-06T01:34:34.882Z,83.91
2018-11-06T01:35:34.891Z,83.25
2018-11-06T01:36:34.928Z,83.53
2018-11-06T01:37:34.965Z,83.53
2018-11-06T01:38:35.003Z,83.44
2018-11-06T01:39:35.043Z,83.44
2018-11-06T01:40:35.079Z,83.15
2018-11-06T01:41:35.117Z,82.77
2018-11-06T01:42:35.463Z,82.87
2018-11-06T01:43:35.195Z,83.25
2018-11-06T01:44:35.231Z,83.15
2018-11-06T01:45:35.269Z,83.15
2018-11-06T01:46:35.317Z,82.87
2018-11-06T01:47:35.346Z,82.87
2018-11-06T01:48:35.383Z,83.15
2018-11-06T01:49:35.420Z,83.44
2018-11-06T01:50:35.459Z,83.44
2018-11-06T01:51:35.497Z,84.01
2018-11-06T01:52:35.540Z,83.44
2018-11-06T01:53:35.578Z,84.29
2018-11-06T01:54:35.612Z,84.01
2018-11-06T01:55:35.656Z,83.44
2018-11-06T01:56:35.965Z,83.53
2018-11-06T01:57:35.734Z,83.82
2018-11-06T01:58:35.764Z,83.44
2018-11-06T01:59:35.867Z,83.15
2018-11-06T02:00:35.838Z,83.06
2018-11-06T02:01:35.883Z,83.34
2018-11-06T02:02:35.914Z,83.15
2018-11-06T02:03:35.951Z,83.25
2018-11-06T02:04:35.988Z,83.44
2018-11-06T02:05:36.025Z,83.25
2018-11-06T02:06:36.065Z,83.82
2018-11-06T02:07:36.103Z,84.10
2018-11-06T02:08:36.252Z,83.82
2018-11-06T02:09:36.176Z,83.62
2018-11-06T02:10:36.214Z,84.20
2018-11-06T02:11:36.283Z,84.29
2018-11-06T02:12:36.300Z,84.10
2018-11-06T02:13:36.330Z,84.29
2018-11-06T02:14:36.372Z,84.39
2018-11-06T02:15:36.553Z,84.20
2018-11-06T02:16:36.442Z,84.77
2018-11-06T02:17:36.480Z,84.95
2018-11-06T02:18:36.516Z,84.77
2018-11-06T02:19:36.555Z,85.05
2018-11-06T02:20:36.590Z,85.24
2018-11-06T02:21:36.632Z,84.86
2018-11-06T02:22:36.678Z,84.67
2018-11-06T02:23:36.706Z,84.77
2018-11-06T02:24:36.755Z,84.86
2018-11-06T02:25:37.047Z,84.48
2018-11-06T02:26:36.846Z,84.77
2018-11-06T02:27:36.867Z,84.86
2018-11-06T02:28:36.896Z,85.15
2018-11-06T02:29:36.933Z,85.43
2018-11-06T02:30:36.970Z,85.81
2018-11-06T02:31:37.011Z,85.43
2018-11-06T02:32:37.113Z,85.24
2018-11-06T02:33:37.084Z,85.43
2018-11-06T02:34:37.122Z,85.53
2018-11-06T02:35:37.162Z,85.53
2018-11-06T02:36:37.197Z,84.77
2018-11-06T02:37:37.235Z,84.58
2018-11-06T02:38:37.273Z,85.05
2018-11-06T02:39:37.313Z,85.15
2018-11-06T02:40:37.348Z,84.95
2018-11-06T02:41:37.538Z,84.77
2018-11-06T02:42:37.425Z,85.43
2018-11-06T02:43:37.476Z,84.67
2018-11-06T02:44:37.506Z,84.86
2018-11-06T02:45:37.538Z,85.15
2018-11-06T02:46:37.575Z,85.01
2018-11-06T02:47:37.611Z,85.15
2018-11-06T02:48:37.653Z,84.39
2018-11-06T02:49:37.695Z,84.01
2018-11-06T02:50:37.728Z,84.29
2018-11-06T02:51:37.765Z,84.16
2018-11-06T02:52:37.808Z,84.29
2018-11-06T02:53:37.840Z,84.29
2018-11-06T02:54:37.877Z,83.72
2018-11-06T02:55:37.928Z,84.01
2018-11-06T02:56:37.953Z,83.53
2018-11-06T02:57:37.990Z,83.82
2018-11-06T02:58:38.032Z,83.53
2018-11-06T02:59:38.067Z,84.01
2018-11-06T03:00:38.106Z,84.01
2018-11-06T03:01:38.146Z,84.48
2018-11-06T03:02:38.180Z,84.01
2018-11-06T03:03:38.220Z,84.48
2018-11-06T03:04:38.256Z,84.01
2018-11-06T03:05:38.436Z,84.20
2018-11-06T03:06:38.342Z,84.34
2018-11-06T03:07:38.572Z,83.97
2018-11-06T03:08:38.407Z,84.06
2018-11-06T03:09:38.451Z,83.97
2018-11-06T03:10:38.486Z,84.06
2018-11-06T03:11:38.520Z,83.91
2018-11-06T03:12:38.555Z,83.44
2018-11-06T03:13:38.593Z,83.68
2018-11-06T03:14:38.631Z,83.78
2018-11-06T03:15:38.670Z,83.20
2018-11-06T03:16:38.755Z,82.77
2018-11-06T03:17:38.745Z,83.01
2018-11-06T03:18:38.781Z,83.11
2018-11-06T03:19:38.822Z,83.78
2018-11-06T03:20:38.865Z,83.34
2018-11-06T03:21:38.901Z,83.91
2018-11-06T03:22:38.933Z,84.20
2018-11-06T03:23:38.975Z,83.97
2018-11-06T03:24:39.006Z,84.06
2018-11-06T03:25:39.045Z,84.06
2018-11-06T03:26:39.081Z,84.34
2018-11-06T03:27:39.121Z,84.06
2018-11-06T03:28:39.163Z,83.97
2018-11-06T03:29:39.198Z,84.06
2018-11-06T03:30:39.241Z,85.01
2018-11-06T03:31:39.295Z,84.72
2018-11-06T03:32:39.315Z,84.82
2018-11-06T03:33:39.347Z,84.91
2018-11-06T03:34:39.384Z,84.72
2018-11-06T03:35:39.423Z,85.20
2018-11-06T03:36:39.458Z,85.20
2018-11-06T03:37:39.502Z,85.20
2018-11-06T03:38:39.537Z,85.39
2018-11-06T03:39:39.587Z,85.77
2018-11-06T03:40:39.610Z,85.01
2018-11-06T03:41:39.646Z,85.11
2018-11-06T03:42:39.685Z,84.72
2018-11-06T03:43:39.721Z,84.82
2018-11-06T03:44:39.761Z,84.72
2018-11-06T03:45:39.797Z,85.11
2018-11-06T03:46:39.844Z,84.53
2018-11-06T03:47:39.872Z,84.44
2018-11-06T03:48:39.909Z,84.63
2018-11-06T03:49:39.946Z,84.25
2018-11-06T03:50:39.986Z,83.87
2018-11-06T03:51:40.023Z,83.39
2018-11-06T03:52:40.062Z,83.49
2018-11-06T03:53:40.101Z,83.97
2018-11-06T03:54:40.136Z,83.68
2018-11-06T03:55:40.174Z,83.11
2018-11-06T03:56:40.211Z,83.20
2018-11-06T03:57:40.261Z,83.30
2018-11-06T03:58:40.293Z,83.68
2018-11-06T03:59:40.325Z,83.39
2018-11-06T04:00:40.362Z,83.39
2018-11-06T04:01:40.400Z,83.01
2018-11-06T04:02:40.435Z,82.82
2018-11-06T04:03:40.475Z,82.92
2018-11-06T04:04:40.513Z,83.20
2018-11-06T04:05:40.548Z,82.64
2018-11-06T04:06:40.592Z,82.35
2018-11-06T04:07:40.623Z,81.87
2018-11-06T04:08:40.660Z,82.16
2018-11-06T04:09:40.699Z,81.87
2018-11-06T04:10:40.738Z,82.16
2018-11-06T04:11:40.774Z,82.26
2018-11-06T04:12:40.811Z,82.26
2018-11-06T04:13:40.848Z,82.16
2018-11-06T04:14:40.893Z,82.35
2018-11-06T04:15:40.923Z,82.16
2018-11-06T04:16:40.959Z,82.35
2018-11-06T04:17:40.999Z,81.87
2018-11-06T04:18:41.036Z,82.26
2018-11-06T04:19:41.074Z,81.78
2018-11-06T04:20:41.114Z,81.87
2018-11-06T04:21:41.148Z,81.49
2018-11-06T04:22:41.189Z,81.68
2018-11-06T04:23:41.228Z,81.12
2018-11-06T04:24:41.262Z,81.21
2018-11-06T04:25:41.303Z,81.02
2018-11-06T04:26:41.335Z,80.83
2018-11-06T04:27:41.373Z,81.02
2018-11-06T04:28:41.408Z,81.02
2018-11-06T04:29:41.446Z,81.02
2018-11-06T04:30:41.540Z,80.83
2018-11-06T04:31:41.790Z,80.93
2018-11-06T04:32:41.571Z,81.02
2018-11-06T04:33:41.599Z,81.12
2018-11-06T04:34:41.636Z,80.93
2018-11-06T04:35:41.672Z,80.74
2018-11-06T04:36:41.808Z,80.74
2018-11-06T04:37:41.749Z,80.16
2018-11-06T04:38:41.784Z,81.02
2018-11-06T04:39:41.822Z,81.30
2018-11-06T04:40:41.871Z,81.40
2018-11-06T04:41:41.898Z,81.68
2018-11-06T04:42:41.934Z,81.59
2018-11-06T04:43:41.972Z,81.68
2018-11-06T04:44:42.010Z,82.35
2018-11-06T04:45:42.053Z,82.07
2018-11-06T04:46:42.091Z,81.97
2018-11-06T04:47:42.119Z,82.45
2018-11-06T04:48:42.170Z,83.01
2018-11-06T04:49:42.199Z,82.92
2018-11-06T04:50:42.233Z,83.26
2018-11-06T04:51:42.270Z,83.64
2018-11-06T04:52:42.309Z,83.16
2018-11-06T04:53:42.344Z,84.21
2018-11-06T04:54:42.388Z,84.01
2018-11-06T04:55:42.418Z,83.26
2018-11-06T04:56:42.456Z,83.07
2018-11-06T04:57:42.495Z,82.88
2018-11-06T04:58:42.536Z,82.69
2018-11-06T04:59:42.570Z,82.59
2018-11-06T05:00:42.605Z,83.16
2018-11-06T05:01:42.641Z,82.69
2018-11-06T05:02:42.684Z,82.88
2018-11-06T05:03:42.718Z,82.45
2018-11-06T05:04:42.754Z,82.73
2018-11-06T05:05:42.796Z,82.64
2018-11-06T05:06:42.849Z,82.54
2018-11-06T05:07:42.873Z,82.35
2018-11-06T05:08:42.906Z,83.20
2018-11-06T05:09:42.941Z,82.69
2018-11-06T05:10:42.980Z,83.01
2018-11-06T05:11:43.018Z,82.82
2018-11-06T05:12:43.053Z,83.01
2018-11-06T05:13:43.098Z,82.73
2018-11-06T05:14:43.336Z,83.20
2018-11-06T05:15:43.167Z,82.73
2018-11-06T05:16:43.204Z,83.64
2018-11-06T05:17:43.246Z,83.54
2018-11-06T05:18:43.279Z,83.45
2018-11-06T05:19:43.318Z,83.26
2018-11-06T05:20:43.364Z,83.64
2018-11-06T05:21:43.388Z,83.16
2018-11-06T05:22:43.427Z,83.16
2018-11-06T05:23:43.468Z,83.26
2018-11-06T05:24:43.500Z,83.64
2018-11-06T05:25:43.540Z,83.20
2018-11-06T05:26:43.576Z,83.54
2018-11-06T05:27:43.650Z,83.26
2018-11-06T05:28:43.650Z,83.54
2018-11-06T05:29:43.687Z,83.64
2018-11-06T05:30:43.731Z,82.78
2018-11-06T05:31:43.764Z,82.97
2018-11-06T05:32:43.874Z,82.69
2018-11-06T05:33:43.838Z,83.54
2018-11-06T05:34:43.961Z,82.97
2018-11-06T05:35:44.080Z,82.97
2018-11-06T05:36:44.142Z,83.07
2018-11-06T05:37:43.989Z,82.40
2018-11-06T05:38:44.063Z,82.78
2018-11-06T05:39:44.069Z,82.69
2018-11-06T05:40:44.100Z,82.88
2018-11-06T05:41:44.137Z,82.40
2018-11-06T05:42:44.174Z,82.40
2018-11-06T05:43:44.211Z,81.74
2018-11-06T05:44:44.249Z,81.84
2018-11-06T05:45:44.462Z,82.12
2018-11-06T05:46:44.322Z,82.03
2018-11-06T05:47:44.362Z,82.03
2018-11-06T05:48:44.395Z,82.03
2018-11-06T05:49:44.434Z,82.21
2018-11-06T05:50:44.471Z,82.03
2018-11-06T05:51:44.509Z,81.84
2018-11-06T05:52:44.549Z,81.93
2018-11-06T05:53:44.589Z,82.40
2018-11-06T05:54:44.621Z,82.69
2018-11-06T05:55:44.658Z,82.69
2018-11-06T05:56:44.693Z,83.16
2018-11-06T05:57:44.737Z,83.54
2018-11-06T05:58:44.770Z,84.01
2018-11-06T05:59:44.806Z,84.34
2018-11-06T06:00:44.845Z,84.30
2018-11-06T06:01:44.882Z,84.11
2018-11-06T06:02:44.918Z,84.21
2018-11-06T06:03:44.956Z,84.78
2018-11-06T06:04:44.992Z,84.59
2018-11-06T06:05:45.031Z,84.68
2018-11-06T06:06:45.071Z,84.59
2018-11-06T06:07:45.108Z,84.59
2018-11-06T06:08:45.141Z,84.01
2018-11-06T06:09:45.180Z,83.92
2018-11-06T06:10:45.219Z,84.01
2018-11-06T06:11:45.256Z,83.16
2018-11-06T06:12:45.291Z,83.64
2018-11-06T06:13:45.330Z,83.64
2018-11-06T06:14:45.369Z,83.26
2018-11-06T06:15:45.404Z,83.36
2018-11-06T06:16:45.612Z,83.64
2018-11-06T06:17:45.485Z,83.64
2018-11-06T06:18:45.521Z,84.01
2018-11-06T06:19:45.553Z,84.11
2018-11-06T06:20:45.592Z,83.64
2018-11-06T06:21:45.678Z,83.73
2018-11-06T06:22:45.664Z,84.30
2018-11-06T06:23:45.701Z,84.40
2018-11-06T06:24:45.739Z,84.30
2018-11-06T06:25:45.776Z,83.54
2018-11-06T06:26:45.811Z,83.92
2018-11-06T06:27:45.850Z,83.16
2018-11-06T06:28:45.915Z,83.07
2018-11-06T06:29:45.924Z,83.36
2018-11-06T06:30:45.967Z,83.54
2018-11-06T06:31:45.999Z,84.40
2018-11-06T06:32:46.036Z,84.40
2018-11-06T06:33:46.079Z,84.21
2018-11-06T06:34:46.271Z,84.49
2018-11-06T06:35:46.160Z,84.87
2018-11-06T06:36:46.188Z,85.06
2018-11-06T06:37:46.253Z,85.44
2018-11-06T06:38:46.489Z,85.82
2018-11-06T06:39:46.299Z,85.63
2018-11-06T06:40:46.428Z,86.39
2018-11-06T06:41:46.376Z,87.15
2018-11-06T06:42:46.411Z,86.96
2018-11-06T06:43:46.451Z,87.72
2018-11-06T06:44:46.487Z,86.77
2018-11-06T06:45:46.519Z,87.05
2018-11-06T06:46:46.560Z,87.43
2018-11-06T06:47:46.597Z,87.82
2018-11-06T06:48:46.631Z,87.72
2018-11-06T06:49:46.682Z,87.43
2018-11-06T06:50:46.750Z,87.62
2018-11-06T06:51:46.976Z,87.43
2018-11-06T06:52:46.945Z,88.29
2018-11-06T06:53:46.865Z,88.10
2018-11-06T06:54:46.881Z,88.10
2018-11-06T06:55:46.902Z,88.39
2018-11-06T06:56:46.939Z,88.76
2018-11-06T06:57:46.967Z,88.29
2018-11-06T06:58:47.006Z,88.67
2018-11-06T06:59:47.042Z,89.33
2018-11-06T07:00:47.087Z,89.43
2018-11-06T07:01:47.115Z,89.43
2018-11-06T07:02:47.154Z,89.53
2018-11-06T07:03:47.191Z,89.05
2018-11-06T07:04:47.227Z,89.43
2018-11-06T07:05:47.267Z,90.38
2018-11-06T07:06:47.304Z,90.57
2018-11-06T07:07:47.340Z,91.24
2018-11-06T07:08:47.380Z,91.89
2018-11-06T07:09:47.471Z,91.80
2018-11-06T07:10:47.458Z,91.89
2018-11-06T07:11:47.500Z,92.66
2018-11-06T07:12:47.608Z,91.89
2018-11-06T07:13:47.564Z,91.80
2018-11-06T07:14:47.601Z,91.99
2018-11-06T07:15:47.640Z,92.75
2018-11-06T07:16:48.017Z,92.18
2018-11-06T07:17:47.714Z,92.66
2018-11-06T07:18:47.828Z,93.41
2018-11-06T07:19:47.791Z,93.70
2018-11-06T07:20:47.833Z,93.23
2018-11-06T07:21:47.863Z,93.32
2018-11-06T07:22:47.899Z,93.51
2018-11-06T07:23:47.939Z,93.51
2018-11-06T07:24:47.974Z,94.23
2018-11-06T07:25:48.012Z,93.84
2018-11-06T07:26:48.310Z,94.42
2018-11-06T07:27:48.084Z,93.94
2018-11-06T07:28:48.165Z,94.60
2018-11-06T07:29:48.171Z,94.70
2018-11-06T07:30:48.216Z,94.89
2018-11-06T07:31:48.235Z,94.65
2018-11-06T07:32:48.271Z,94.93
2018-11-06T07:33:48.324Z,94.51
2018-11-06T07:34:48.425Z,94.70
2018-11-06T07:35:48.552Z,96.12
2018-11-06T07:36:48.424Z,95.79
2018-11-06T07:37:48.461Z,95.46
2018-11-06T07:38:48.498Z,94.89
2018-11-06T07:39:48.545Z,95.55
2018-11-06T07:40:48.595Z,94.98
2018-11-06T07:41:48.612Z,95.55
2018-11-06T07:42:48.659Z,95.65
2018-11-06T07:43:48.683Z,96.69
2018-11-06T07:44:48.723Z,97.74
2018-11-06T07:45:48.766Z,98.31
2018-11-06T07:46:48.798Z,97.92
2018-11-06T07:47:48.831Z,97.55
2018-11-06T07:48:48.880Z,97.55
2018-11-06T07:49:48.960Z,97.92
2018-11-06T07:50:48.954Z,97.45
2018-11-06T07:51:48.985Z,97.64
2018-11-06T07:52:49.032Z,97.83
2018-11-06T07:53:49.057Z,97.64
2018-11-06T07:54:49.095Z,97.74
2018-11-06T07:55:49.405Z,97.64
2018-11-06T07:56:49.177Z,98.59
2018-11-06T07:57:49.256Z,98.31
2018-11-06T07:58:49.248Z,98.69
2018-11-06T07:59:49.282Z,98.69
2018-11-06T08:00:49.318Z,97.64
2018-11-06T08:01:49.355Z,98.31
2018-11-06T08:02:49.397Z,98.40
2018-11-06T08:03:49.443Z,98.88
2018-11-06T08:04:49.470Z,98.31
2018-11-06T08:05:49.508Z,98.31
2018-11-06T08:06:49.545Z,98.40
2018-11-06T08:07:49.581Z,98.69
2018-11-06T08:08:49.619Z,98.97
2018-11-06T08:09:49.727Z,98.97
2018-11-06T08:10:49.702Z,99.16
2018-11-06T08:11:49.734Z,98.79
2018-11-06T08:12:49.769Z,98.50
2018-11-06T08:13:49.809Z,98.59
2018-11-06T08:14:49.898Z,98.69
2018-11-06T08:15:49.890Z,98.88
2018-11-06T08:16:49.918Z,98.69
2018-11-06T08:17:49.975Z,99.35
2018-11-06T08:18:49.995Z,99.21
2018-11-06T08:19:50.032Z,99.07
2018-11-06T08:20:50.077Z,98.59
2018-11-06T08:21:50.109Z,98.83
2018-11-06T08:22:50.146Z,98.45
2018-11-06T08:23:50.324Z,98.55
2018-11-06T08:24:50.222Z,98.83
2018-11-06T08:25:50.827Z,98.93
2018-11-06T08:26:50.296Z,98.74
2018-11-06T08:27:50.442Z,98.74
2018-11-06T08:28:50.374Z,99.50
2018-11-06T08:29:50.421Z,99.30
2018-11-06T08:30:50.657Z,99.99
2018-11-06T08:31:50.836Z,99.99
2018-11-06T08:32:50.841Z,99.99
2018-11-06T08:33:50.562Z,99.99
2018-11-06T08:34:50.599Z,99.97
2018-11-06T08:35:50.637Z,99.99
2018-11-06T08:36:50.726Z,99.99
2018-11-06T08:37:50.716Z,99.97
2018-11-06T08:38:50.756Z,99.99
2018-11-06T08:39:50.788Z,99.99
2018-11-06T08:40:50.825Z,99.99
2018-11-06T08:41:50.864Z,99.99
2018-11-06T08:42:50.900Z,99.99
2018-11-06T08:43:50.950Z,99.99
2018-11-06T08:44:50.977Z,99.99
2018-11-06T08:45:51.018Z,99.99
2018-11-06T08:46:51.052Z,99.99
2018-11-06T08:47:51.093Z,99.99
2018-11-06T08:48:51.129Z,99.99
2018-11-06T08:49:51.166Z,99.99
2018-11-06T08:50:51.209Z,99.99
2018-11-06T08:51:51.251Z,99.99
2018-11-06T08:52:51.285Z,99.99
2018-11-06T08:53:51.319Z,99.99
2018-11-06T08:54:51.361Z,99.99
2018-11-06T08:55:51.397Z,99.99
2018-11-06T08:56:51.432Z,99.99
2018-11-06T08:57:51.469Z,99.99
2018-11-06T08:58:51.508Z,99.99
2018-11-06T08:59:51.553Z,99.99
2018-11-06T09:00:51.753Z,99.99
2018-11-06T09:01:51.623Z,99.99
2018-11-06T09:02:51.661Z,99.99
2018-11-06T09:03:51.781Z,99.99
2018-11-06T09:04:51.743Z,99.99
2018-11-06T09:05:51.780Z,99.99
2018-11-06T09:06:51.814Z,99.99
2018-11-06T09:07:51.850Z,99.99
2018-11-06T09:08:51.897Z,99.99
2018-11-06T09:09:51.926Z,99.99
2018-11-06T09:10:51.964Z,99.99
2018-11-06T09:11:52.053Z,99.99
2018-11-06T09:12:52.043Z,99.99
2018-11-06T09:13:52.087Z,99.99
2018-11-06T09:14:52.120Z,99.99
2018-11-06T09:15:52.160Z,99.99
2018-11-06T09:16:52.200Z,99.99
2018-11-06T09:17:52.232Z,99.99
2018-11-06T09:18:52.270Z,99.99
2018-11-06T09:19:52.308Z,99.99
2018-11-06T09:20:52.353Z,99.99
2018-11-06T09:21:52.385Z,99.99
2018-11-06T09:22:52.425Z,99.99
2018-11-06T09:23:52.463Z,99.99
2018-11-06T09:24:52.509Z,99.99
2018-11-06T09:25:52.557Z,99.99
2018-11-06T09:26:52.579Z,99.99
2018-11-06T09:27:52.617Z,99.99
2018-11-06T09:28:52.658Z,99.99
2018-11-06T09:29:52.696Z,99.99
2018-11-06T09:30:52.805Z,99.99
2018-11-06T09:31:52.771Z,99.99
2018-11-06T09:32:52.822Z,99.99
2018-11-06T09:33:52.849Z,99.99
2018-11-06T09:34:52.895Z,99.99
2018-11-06T09:35:52.929Z,99.99
2018-11-06T09:36:52.964Z,99.99
2018-11-06T09:37:53.003Z,99.99
2018-11-06T09:38:53.042Z,99.99
2018-11-06T09:39:53.095Z,99.99
2018-11-06T09:40:53.119Z,99.99
2018-11-06T09:41:53.155Z,99.99
2018-11-06T09:42:53.198Z,99.99
2018-11-06T09:43:53.240Z,99.99
2018-11-06T09:44:53.284Z,99.99
2018-11-06T09:45:53.315Z,99.99
2018-11-06T09:46:53.389Z,99.99
2018-11-06T09:47:53.394Z,99.99
2018-11-06T09:48:53.426Z,99.99
2018-11-06T09:49:53.471Z,99.99
2018-11-06T09:50:53.506Z,99.99
2018-11-06T09:51:53.585Z,99.99
2018-11-06T09:52:53.585Z,99.99
2018-11-06T09:53:53.631Z,99.99
2018-11-06T09:54:53.725Z,99.99
2018-11-06T09:55:53.704Z,99.99
2018-11-06T09:56:53.755Z,99.99
2018-11-06T09:57:53.783Z,99.99
2018-11-06T09:58:53.819Z,99.99
2018-11-06T09:59:53.878Z,99.99
2018-11-06T10:00:53.899Z,99.99
2018-11-06T10:01:53.936Z,99.99
2018-11-06T10:02:53.981Z,99.99
2018-11-06T10:03:54.014Z,99.99
2018-11-06T10:04:54.052Z,99.99
2018-11-06T10:05:54.094Z,99.99
2018-11-06T10:06:54.468Z,99.99
2018-11-06T10:07:54.236Z,99.99
2018-11-06T10:08:54.209Z,99.99
2018-11-06T10:09:54.250Z,99.99
2018-11-06T10:10:54.287Z,99.99
2018-11-06T10:11:54.327Z,99.99
2018-11-06T10:12:54.365Z,99.99
2018-11-06T10:13:54.411Z,99.99
2018-11-06T10:14:54.444Z,99.99
2018-11-06T10:15:54.484Z,99.99
2018-11-06T10:16:54.531Z,99.99
2018-11-06T10:17:54.573Z,99.99
2018-11-06T10:18:54.601Z,99.99
2018-11-06T10:19:54.642Z,99.99
2018-11-06T10:20:54.680Z,99.99
2018-11-06T10:21:54.734Z,99.99
2018-11-06T10:22:54.761Z,99.99
2018-11-06T10:23:54.802Z,99.99
2018-11-06T10:24:54.838Z,99.99
2018-11-06T10:25:54.877Z,99.99
2018-11-06T10:26:54.919Z,99.99
2018-11-06T10:27:54.958Z,99.99
2018-11-06T10:28:54.998Z,99.99
2018-11-06T10:29:55.037Z,99.99
2018-11-06T10:30:55.127Z,99.99
2018-11-06T10:31:55.127Z,99.99
2018-11-06T10:32:55.157Z,99.99
2018-11-06T10:33:55.196Z,99.99
2018-11-06T10:34:55.233Z,99.99
2018-11-06T10:35:55.444Z,99.99
2018-11-06T10:36:55.309Z,99.99
2018-11-06T10:37:55.381Z,99.99
2018-11-06T10:38:55.388Z,99.99
2018-11-06T10:39:55.431Z,99.99
2018-11-06T10:40:55.470Z,99.99
2018-11-06T10:41:55.512Z,99.99
2018-11-06T10:42:55.557Z,99.99
2018-11-06T10:43:55.592Z,99.99
2018-11-06T10:44:55.633Z,99.99
2018-11-06T10:45:55.740Z,99.99
2018-11-06T10:46:55.714Z,99.99
2018-11-06T10:47:55.747Z,99.99
2018-11-06T10:48:55.785Z,99.99
2018-11-06T10:49:55.844Z,99.99
2018-11-06T10:50:55.872Z,99.99
2018-11-06T10:51:56.044Z,99.99
2018-11-06T10:52:55.970Z,99.99
2018-11-06T10:53:55.986Z,99.99
2018-11-06T10:54:56.028Z,99.99
2018-11-06T10:55:56.068Z,99.99
2018-11-06T10:56:56.105Z,99.99
2018-11-06T10:57:56.151Z,99.99
2018-11-06T10:58:56.195Z,99.99
2018-11-06T10:59:56.227Z,99.99
2018-11-06T11:00:56.265Z,99.99
2018-11-06T11:01:56.305Z,99.99
2018-11-06T11:02:56.347Z,99.99
2018-11-06T11:03:56.408Z,99.99
2018-11-06T11:04:56.435Z,99.99
2018-11-06T11:05:56.467Z,99.99
2018-11-06T11:06:56.511Z,99.99
2018-11-06T11:07:56.547Z,99.99
2018-11-06T11:08:56.600Z,99.99
2018-11-06T11:09:56.627Z,99.99
2018-11-06T11:10:56.665Z,99.99
2018-11-06T11:11:56.707Z,99.99
2018-11-06T11:12:56.748Z,99.99
2018-11-06T11:13:56.788Z,99.99
2018-11-06T11:14:56.832Z,99.99
2018-11-06T11:15:56.870Z,99.99
2018-11-06T11:16:56.911Z,99.99
2018-11-06T11:17:56.953Z,99.99
2018-11-06T11:18:56.990Z,99.99
2018-11-06T11:19:57.081Z,99.99
2018-11-06T11:20:57.077Z,99.99
2018-11-06T11:21:57.212Z,99.99
2018-11-06T11:22:57.151Z,99.99
2018-11-06T11:23:57.194Z,99.99
2018-11-06T11:24:57.232Z,99.99
2018-11-06T11:25:57.273Z,99.99
2018-11-06T11:26:57.318Z,99.99
2018-11-06T11:27:57.354Z,99.99
2018-11-06T11:28:57.398Z,99.99
2018-11-06T11:29:57.433Z,99.99
2018-11-06T11:30:57.490Z,99.99
2018-11-06T11:31:57.523Z,99.99
2018-11-06T11:32:57.559Z,99.99
2018-11-06T11:33:57.677Z,99.99
2018-11-06T11:34:57.643Z,99.99
2018-11-06T11:35:57.723Z,99.99
2018-11-06T11:36:57.719Z,99.99
2018-11-06T11:37:57.763Z,99.99
2018-11-06T11:38:57.800Z,99.99
2018-11-06T11:39:57.842Z,99.99
2018-11-06T11:40:57.894Z,99.99
2018-11-06T11:41:57.933Z,99.99
2018-11-06T11:42:57.965Z,99.99
2018-11-06T11:43:58.038Z,99.99
2018-11-06T11:44:58.046Z,99.99
2018-11-06T11:45:58.151Z,99.99
2018-11-06T11:46:58.132Z,99.99
2018-11-06T11:47:58.172Z,99.99
2018-11-06T11:48:58.210Z,99.99
2018-11-06T11:49:58.265Z,99.99
2018-11-06T11:50:58.294Z,99.99
2018-11-06T11:51:58.336Z,99.99
2018-11-06T11:52:58.380Z,99.99
2018-11-06T11:53:58.416Z,99.99
2018-11-06T11:54:58.460Z,99.99
2018-11-06T11:55:58.501Z,99.99
2018-11-06T11:56:58.551Z,99.99
2018-11-06T11:57:58.582Z,99.99
2018-11-06T11:58:58.625Z,99.99
2018-11-06T11:59:58.727Z,99.99
2018-11-06T12:00:58.716Z,99.99
2018-11-06T12:01:58.795Z,99.99
2018-11-06T12:02:58.800Z,99.99
2018-11-06T12:03:58.840Z,99.99
2018-11-06T12:04:58.875Z,99.99
2018-11-06T12:05:58.938Z,99.99
2018-11-06T12:06:59.179Z,99.99
2018-11-06T12:07:58.998Z,99.99
2018-11-06T12:08:59.040Z,99.99
2018-11-06T12:09:59.082Z,99.99
2018-11-06T12:10:59.128Z,99.99
2018-11-06T12:11:59.171Z,99.99
2018-11-06T12:12:59.206Z,99.99
2018-11-06T12:13:59.253Z,99.99
2018-11-06T12:14:59.297Z,99.99
2018-11-06T12:15:59.336Z,99.99
2018-11-06T12:16:59.383Z,99.99
2018-11-06T12:17:59.462Z,99.99
2018-11-06T12:18:59.461Z,99.99
2018-11-06T12:19:59.502Z,99.99
2018-11-06T12:20:59.549Z,99.99
2018-11-06T12:21:59.582Z,99.99
2018-11-06T12:22:59.627Z,99.99
2018-11-06T12:23:59.686Z,99.99
2018-11-06T12:24:59.894Z,99.99
2018-11-06T12:25:59.751Z,99.99
2018-11-06T12:26:59.792Z,99.99
2018-11-06T12:27:59.849Z,99.99
2018-11-06T12:28:59.882Z,99.99
2018-11-06T12:29:59.929Z,99.99
2018-11-06T12:30:59.962Z,99.99
2018-11-06T12:32:00.020Z,99.99
2018-11-06T12:33:00.057Z,99.99
2018-11-06T12:34:00.090Z,99.99
2018-11-06T12:35:00.135Z,99.99
2018-11-06T12:36:00.180Z,99.99
2018-11-06T12:37:00.329Z,99.99
2018-11-06T12:38:00.269Z,99.99
2018-11-06T12:39:00.299Z,99.99
2018-11-06T12:40:00.340Z,99.99
2018-11-06T12:41:00.383Z,99.99
2018-11-06T12:42:00.429Z,99.99
2018-11-06T12:43:00.491Z,99.99
2018-11-06T12:44:00.520Z,99.99
2018-11-06T12:45:00.553Z,99.99
2018-11-06T12:46:00.596Z,99.99
2018-11-06T12:47:00.637Z,99.99
2018-11-06T12:48:00.682Z,99.99
2018-11-06T12:49:00.724Z,99.99
2018-11-06T12:50:00.766Z,99.99
2018-11-06T12:51:00.811Z,99.99
2018-11-06T12:52:00.852Z,99.99
2018-11-06T12:53:00.905Z,99.99